createdAt,value
2019-02-10T00:00:12.196Z,57.67
2019-02-10T00:03:20.552Z,52.10
2019-02-10T00:06:27.352Z,79.37
2019-02-10T00:09:34.212Z,64.10
2019-02-10T00:12:41.245Z,55.20
2019-02-10T00:15:48.075Z,51.47
2019-02-10T00:18:54.892Z,70.43
2019-02-10T00:22:02.103Z,73.67
2019-02-10T00:25:09.124Z,64.60
2019-02-10T00:28:16.088Z,58.50
2019-02-10T00:31:22.967Z,61.03
2019-02-10T00:34:30.842Z,65.70
2019-02-10T00:37:37.715Z,64.70
2019-02-10T00:40:44.588Z,75.67
2019-02-10T00:43:51.352Z,53.40
2019-02-10T00:46:58.380Z,54.17
2019-02-10T00:50:06.087Z,62.83
2019-02-10T00:53:12.818Z,62.03
2019-02-10T00:56:19.695Z,64.53
2019-02-10T00:59:26.410Z,64.20
2019-02-10T01:02:33.152Z,70.10
2019-02-10T01:05:39.934Z,70.00
2019-02-10T01:08:46.766Z,61.90
2019-02-10T01:11:53.585Z,70.20
2019-02-10T01:15:00.495Z,61.80
2019-02-10T01:18:07.332Z,82.13
2019-02-10T01:21:14.251Z,71.70
2019-02-10T01:24:21.145Z,81.00
2019-02-10T01:27:27.886Z,75.93
2019-02-10T01:30:35.110Z,69.77
2019-02-10T01:33:41.888Z,74.00
2019-02-10T01:36:49.952Z,74.57
2019-02-10T01:39:56.938Z,65.80
2019-02-10T01:43:03.791Z,61.03
2019-02-10T01:46:10.533Z,52.60
2019-02-10T01:49:17.323Z,62.43
2019-02-10T01:52:24.187Z,66.40
2019-02-10T01:55:32.929Z,50.97
2019-02-10T01:58:39.579Z,57.60
2019-02-10T02:01:46.707Z,58.67
2019-02-10T02:04:53.500Z,60.27
2019-02-10T02:08:00.244Z,56.97
2019-02-10T02:11:07.032Z,47.67
2019-02-10T02:14:13.860Z,57.33
2019-02-10T02:17:21.840Z,51.23
2019-02-10T02:20:28.602Z,63.47
2019-02-10T02:23:35.525Z,56.63
2019-02-10T02:26:42.410Z,68.57
2019-02-10T02:29:49.145Z,73.23
2019-02-10T02:32:56.273Z,42.07
2019-02-10T02:36:03.087Z,62.53
2019-02-10T02:39:09.926Z,44.30
2019-02-10T02:42:17.022Z,64.07
2019-02-10T02:45:23.738Z,58.13
2019-02-10T02:48:30.634Z,67.93
2019-02-10T02:51:37.470Z,67.40
2019-02-10T02:54:44.357Z,78.57
2019-02-10T02:57:52.408Z,58.93
2019-02-10T03:00:59.328Z,59.87
2019-02-10T03:04:06.126Z,53.90
2019-02-10T03:07:17.972Z,56.20
2019-02-10T03:10:22.608Z,64.77
2019-02-10T03:13:29.543Z,67.63
2019-02-10T03:16:36.416Z,70.80
2019-02-10T03:19:43.202Z,46.97
2019-02-10T03:22:51.004Z,43.57
2019-02-10T03:25:57.799Z,47.90
2019-02-10T03:29:04.549Z,54.43
2019-02-10T03:32:11.313Z,56.30
2019-02-10T03:35:18.066Z,65.13
2019-02-10T03:38:24.897Z,55.07
2019-02-10T03:41:31.681Z,46.20
2019-02-10T03:44:38.414Z,57.53
2019-02-10T03:47:45.212Z,45.13
2019-02-10T03:50:52.042Z,60.40
2019-02-10T03:53:58.793Z,47.10
2019-02-10T03:57:05.540Z,49.97
2019-02-10T04:00:12.284Z,56.80
2019-02-10T04:03:19.082Z,52.30
2019-02-10T04:06:25.961Z,36.77
2019-02-10T04:09:32.766Z,55.37
2019-02-10T04:12:39.623Z,67.20
2019-02-10T04:15:46.426Z,39.30
2019-02-10T04:18:53.421Z,68.43
2019-02-10T04:22:00.141Z,85.10
2019-02-10T04:25:06.934Z,51.43
2019-02-10T04:28:13.694Z,56.40
2019-02-10T04:31:20.484Z,48.97
2019-02-10T04:34:27.229Z,46.17
2019-02-10T04:37:33.998Z,36.03
2019-02-10T04:40:40.748Z,48.00
2019-02-10T04:43:47.566Z,48.13
2019-02-10T04:46:54.381Z,54.33
2019-02-10T04:50:01.104Z,47.73
2019-02-10T04:53:08.020Z,44.30
2019-02-10T04:56:16.598Z,40.67
2019-02-10T04:59:23.387Z,50.83
2019-02-10T05:02:30.129Z,45.53
2019-02-10T05:05:36.863Z,38.27
2019-02-10T05:08:43.722Z,42.10
2019-02-10T05:11:50.459Z,46.33
2019-02-10T05:14:57.258Z,43.23
2019-02-10T05:18:03.952Z,45.33
2019-02-10T05:21:10.837Z,30.40
2019-02-10T05:24:17.591Z,35.10
2019-02-10T05:27:24.349Z,52.20
2019-02-10T05:30:31.140Z,45.03
2019-02-10T05:33:37.899Z,37.27
2019-02-10T05:36:44.644Z,46.33
2019-02-10T05:39:51.500Z,35.63
2019-02-10T05:42:58.248Z,35.57
2019-02-10T05:46:06.270Z,50.47
2019-02-10T05:49:13.078Z,43.50
2019-02-10T05:52:19.905Z,26.63
2019-02-10T05:55:26.787Z,41.93
2019-02-10T05:58:33.536Z,36.83
2019-02-10T06:02:02.795Z,53.93
2019-02-10T06:05:16.847Z,57.00
2019-02-10T06:08:23.625Z,54.10
2019-02-10T06:11:30.391Z,83.50
2019-02-10T06:14:37.278Z,73.10
2019-02-10T06:17:44.087Z,105.77
2019-02-10T06:20:51.070Z,92.37
2019-02-10T06:23:57.869Z,95.40
2019-02-10T06:27:04.652Z,98.47
2019-02-10T06:30:11.796Z,96.87
2019-02-10T06:33:18.682Z,72.17
2019-02-10T06:36:25.416Z,117.57
2019-02-10T06:39:32.253Z,93.13
2019-02-10T06:42:39.023Z,73.30
2019-02-10T06:45:45.871Z,63.27
2019-02-10T06:48:52.737Z,64.60
2019-02-10T06:51:59.613Z,58.13
2019-02-10T06:55:08.173Z,62.47
2019-02-10T06:58:15.243Z,45.43
2019-02-10T07:01:35.191Z,49.83
2019-02-10T07:04:41.913Z,58.73
2019-02-10T07:07:48.739Z,52.10
2019-02-10T07:10:55.549Z,71.80
2019-02-10T07:14:03.620Z,76.27
2019-02-10T07:17:46.749Z,89.17
2019-02-10T07:20:53.580Z,75.10
2019-02-10T07:24:22.063Z,87.13
2019-02-10T07:27:32.665Z,110.30
2019-02-10T07:30:45.334Z,119.63
2019-02-10T07:34:07.241Z,140.97
2019-02-10T07:37:37.301Z,124.70
2019-02-10T07:41:00.656Z,102.37
2019-02-10T07:44:44.337Z,82.97
2019-02-10T07:48:12.993Z,80.63
2019-02-10T07:51:32.284Z,91.60
2019-02-10T07:55:20.117Z,107.87
2019-02-10T07:59:06.867Z,103.37
2019-02-10T08:03:06.153Z,69.97
2019-02-10T08:06:41.703Z,58.20
2019-02-10T08:10:50.699Z,39.53
2019-02-10T08:14:23.837Z,44.97
2019-02-10T08:18:05.295Z,47.60
2019-02-10T08:22:11.263Z,45.13
2019-02-10T08:25:39.250Z,43.67
2019-02-10T08:29:29.423Z,35.43
2019-02-10T08:33:18.247Z,53.23
2019-02-10T08:36:46.400Z,48.57
2019-02-10T08:40:22.773Z,59.77
2019-02-10T08:44:01.141Z,57.00
2019-02-10T08:47:48.061Z,60.67
2019-02-10T08:51:30.381Z,48.40
2019-02-10T08:54:37.137Z,44.77
2019-02-10T08:57:43.993Z,50.20
2019-02-10T09:00:50.951Z,55.12
2019-02-10T09:03:57.757Z,48.03
2019-02-10T09:07:04.637Z,64.57
2019-02-10T09:10:12.338Z,76.27
2019-02-10T09:13:19.168Z,103.90
2019-02-10T09:16:26.053Z,107.40
2019-02-10T09:19:33.707Z,83.27
2019-02-10T09:22:40.539Z,72.83
2019-02-10T09:25:47.389Z,84.07
2019-02-10T09:28:54.632Z,57.90
2019-02-10T09:32:01.423Z,66.20
2019-02-10T09:35:08.619Z,59.00
2019-02-10T09:38:15.486Z,48.70
2019-02-10T09:41:22.461Z,46.10
2019-02-10T09:44:29.296Z,47.83
2019-02-10T09:47:36.109Z,69.73
2019-02-10T09:50:43.273Z,52.70
2019-02-10T09:53:50.135Z,44.80
2019-02-10T09:56:56.939Z,53.40
2019-02-10T10:00:04.186Z,42.47
2019-02-10T10:03:11.013Z,24.70
2019-02-10T10:06:17.827Z,29.50
2019-02-10T10:09:24.891Z,48.27
2019-02-10T10:12:31.807Z,56.13
2019-02-10T10:15:38.645Z,35.03
2019-02-10T10:18:45.503Z,50.50
2019-02-10T10:21:52.455Z,45.53
2019-02-10T10:25:00.596Z,45.20
2019-02-10T10:28:07.649Z,39.80
2019-02-10T10:31:14.461Z,52.67
2019-02-10T10:34:21.321Z,71.87
2019-02-10T10:37:28.311Z,69.93
2019-02-10T10:40:35.083Z,58.90
2019-02-10T10:43:42.257Z,72.08
2019-02-10T10:46:49.236Z,37.20
2019-02-10T10:49:56.015Z,47.97
2019-02-10T10:53:02.800Z,41.37
2019-02-10T10:56:10.169Z,38.07
2019-02-10T10:59:17.171Z,36.63
2019-02-10T11:02:23.991Z,42.87
2019-02-10T11:05:30.958Z,53.13
2019-02-10T11:08:38.217Z,64.83
2019-02-10T11:11:44.993Z,52.63
2019-02-10T11:14:51.912Z,38.63
2019-02-10T11:17:58.831Z,49.67
2019-02-10T11:21:05.651Z,57.43
2019-02-10T11:24:12.645Z,51.47
2019-02-10T11:27:19.499Z,55.97
2019-02-10T11:30:26.379Z,64.13
2019-02-10T11:33:33.246Z,69.67
2019-02-10T11:36:40.097Z,41.63
2019-02-10T11:39:47.037Z,46.30
2019-02-10T11:42:53.901Z,50.90
2019-02-10T11:46:00.745Z,27.90
2019-02-10T11:49:07.567Z,25.00
2019-02-10T11:52:14.419Z,34.10
2019-02-10T11:55:21.345Z,34.17
2019-02-10T11:58:28.275Z,22.37
2019-02-10T12:01:35.079Z,36.97
2019-02-10T12:04:42.332Z,48.33
2019-02-10T12:07:49.174Z,42.43
2019-02-10T12:10:56.063Z,35.70
2019-02-10T12:14:02.981Z,75.80
2019-02-10T12:17:09.837Z,29.63
2019-02-10T12:20:16.709Z,23.40
2019-02-10T12:23:23.542Z,21.27
2019-02-10T12:26:30.327Z,21.60
2019-02-10T12:29:37.152Z,31.90
2019-02-10T12:32:43.882Z,32.53
2019-02-10T12:35:57.989Z,36.57
2019-02-10T12:38:59.279Z,23.63
2019-02-10T12:42:06.182Z,28.93
2019-02-10T12:45:13.069Z,36.90
2019-02-10T12:48:19.912Z,46.30
2019-02-10T12:51:27.078Z,74.47
2019-02-10T12:54:33.906Z,60.27
2019-02-10T12:57:40.762Z,70.43
2019-02-10T13:00:47.520Z,69.57
2019-02-10T13:03:54.422Z,86.60
2019-02-10T13:07:02.401Z,100.27
2019-02-10T13:10:10.694Z,83.47
2019-02-10T13:13:19.306Z,118.53
2019-02-10T13:16:26.241Z,104.13
2019-02-10T13:19:33.164Z,48.37
2019-02-10T13:22:39.915Z,30.20
2019-02-10T13:25:46.774Z,54.03
2019-02-10T13:28:53.671Z,42.63
2019-02-10T13:32:00.532Z,58.50
2019-02-10T13:35:07.416Z,45.63
2019-02-10T13:38:14.300Z,46.13
2019-02-10T13:41:21.168Z,22.53
2019-02-10T13:44:28.037Z,50.13
2019-02-10T13:47:34.882Z,33.80
2019-02-10T13:50:42.024Z,59.00
2019-02-10T13:53:49.293Z,37.67
2019-02-10T13:56:56.166Z,44.60
2019-02-10T14:00:03.085Z,42.00
2019-02-10T14:03:09.943Z,60.73
2019-02-10T14:06:16.779Z,61.20
2019-02-10T14:09:23.585Z,71.67
2019-02-10T14:12:30.436Z,60.90
2019-02-10T14:15:37.374Z,37.23
2019-02-10T14:18:44.284Z,67.47
2019-02-10T14:21:51.274Z,58.70
2019-02-10T14:24:57.994Z,63.13
2019-02-10T14:28:04.844Z,53.50
2019-02-10T14:31:11.660Z,76.70
2019-02-10T14:34:18.881Z,59.37
2019-02-10T14:37:25.898Z,35.00
2019-02-10T14:40:34.104Z,64.87
2019-02-10T14:43:40.940Z,74.47
2019-02-10T14:46:49.058Z,43.43
2019-02-10T14:49:55.953Z,60.60
2019-02-10T14:53:03.162Z,82.00
2019-02-10T14:56:10.005Z,93.70
2019-02-10T14:59:16.882Z,46.40
2019-02-10T15:02:23.808Z,54.90
2019-02-10T15:05:30.690Z,27.23
2019-02-10T15:08:39.637Z,29.17
2019-02-10T15:11:47.332Z,32.77
2019-02-10T15:14:54.204Z,38.40
2019-02-10T15:18:01.326Z,51.90
2019-02-10T15:21:08.250Z,32.77
2019-02-10T15:24:15.010Z,41.37
2019-02-10T15:27:22.038Z,50.23
2019-02-10T15:30:28.982Z,44.67
2019-02-10T15:33:35.806Z,29.97
2019-02-10T15:36:42.618Z,35.78
2019-02-10T15:39:49.489Z,41.00
2019-02-10T15:42:56.378Z,33.17
2019-02-10T15:46:03.235Z,33.13
2019-02-10T15:49:10.211Z,33.37
2019-02-10T15:52:17.146Z,23.43
2019-02-10T15:55:25.646Z,37.50
2019-02-10T15:58:32.654Z,32.53
2019-02-10T16:01:39.786Z,47.50
2019-02-10T16:04:46.533Z,46.87
2019-02-10T16:07:53.401Z,45.13
2019-02-10T16:11:00.204Z,35.87
2019-02-10T16:14:07.051Z,48.77
2019-02-10T16:17:14.351Z,66.37
2019-02-10T16:20:21.443Z,75.30
2019-02-10T16:23:28.372Z,78.00
2019-02-10T16:26:35.257Z,71.73
2019-02-10T16:29:42.384Z,150.17
2019-02-10T16:32:50.322Z,79.63
2019-02-10T16:35:57.410Z,76.00
2019-02-10T16:39:06.546Z,59.80
2019-02-10T16:42:14.154Z,73.90
2019-02-10T16:45:20.965Z,57.03
2019-02-10T16:48:29.959Z,32.87
2019-02-10T16:51:37.371Z,38.80
2019-02-10T16:54:44.603Z,52.63
2019-02-10T16:57:51.587Z,35.47
2019-02-10T17:00:58.549Z,25.03
2019-02-10T17:04:05.531Z,35.87
2019-02-10T17:07:12.542Z,27.60
2019-02-10T17:10:22.353Z,28.57
2019-02-10T17:13:29.428Z,20.57
2019-02-10T17:16:36.385Z,19.90
2019-02-10T17:19:43.519Z,27.80
2019-02-10T17:22:50.556Z,19.07
2019-02-10T17:25:57.324Z,60.23
2019-02-10T17:29:04.398Z,93.83
2019-02-10T17:32:12.495Z,31.70
2019-02-10T17:35:19.572Z,43.00
2019-02-10T17:38:26.548Z,76.63
2019-02-10T17:41:40.117Z,77.60
2019-02-10T17:44:47.098Z,96.07
2019-02-10T17:47:53.951Z,98.73
2019-02-10T17:51:00.841Z,61.67
2019-02-10T17:54:07.663Z,31.93
2019-02-10T17:57:14.612Z,54.57
2019-02-10T18:00:24.966Z,60.60
2019-02-10T18:03:32.924Z,43.10
2019-02-10T18:06:40.044Z,50.83
2019-02-10T18:09:47.049Z,39.37
2019-02-10T18:12:53.817Z,66.17
2019-02-10T18:16:25.565Z,38.93
2019-02-10T18:19:47.348Z,35.03
2019-02-10T18:23:03.685Z,38.37
2019-02-10T18:26:31.006Z,36.33
2019-02-10T18:29:44.370Z,51.57
2019-02-10T18:33:01.578Z,42.87
2019-02-10T18:36:25.996Z,49.90
2019-02-10T18:39:46.584Z,52.63
2019-02-10T18:43:27.521Z,52.10
2019-02-10T18:46:53.578Z,40.43
2019-02-10T18:50:17.456Z,28.70
2019-02-10T18:53:34.964Z,25.90
2019-02-10T18:57:10.185Z,25.70
2019-02-10T19:00:38.971Z,38.27
2019-02-10T19:04:05.524Z,44.57
2019-02-10T19:07:31.256Z,66.33
2019-02-10T19:10:56.511Z,48.70
2019-02-10T19:14:21.118Z,59.10
2019-02-10T19:17:55.787Z,47.00
2019-02-10T19:21:20.526Z,68.30
2019-02-10T19:24:46.351Z,85.53
2019-02-10T19:28:10.593Z,94.73
2019-02-10T19:31:37.456Z,69.23
2019-02-10T19:35:03.210Z,38.27
2019-02-10T19:38:41.204Z,49.10
2019-02-10T19:42:00.890Z,29.03
2019-02-10T19:45:36.208Z,53.53
2019-02-10T19:48:57.151Z,71.77
2019-02-10T19:52:14.450Z,38.77
2019-02-10T19:55:32.618Z,64.27
2019-02-10T19:59:02.891Z,68.00
2019-02-10T20:02:20.633Z,54.57
2019-02-10T20:05:36.912Z,47.43
2019-02-10T20:09:06.842Z,70.93
2019-02-10T20:12:38.748Z,99.27
2019-02-10T20:15:53.872Z,134.83
2019-02-10T20:19:26.489Z,96.33
2019-02-10T20:22:53.042Z,92.70
2019-02-10T20:26:21.493Z,115.90
2019-02-10T20:29:49.795Z,94.30
2019-02-10T20:33:15.806Z,71.87
2019-02-10T20:36:47.319Z,53.97
2019-02-10T20:40:05.079Z,83.93
2019-02-10T20:43:46.275Z,91.23
2019-02-10T20:47:04.963Z,71.93
2019-02-10T20:50:39.693Z,103.20
2019-02-10T20:54:11.549Z,67.03
2019-02-10T20:57:25.302Z,40.63
2019-02-10T21:01:03.174Z,55.87
2019-02-10T21:04:27.508Z,62.40
2019-02-10T21:07:52.967Z,80.73
2019-02-10T21:11:15.636Z,75.17
2019-02-10T21:14:40.306Z,83.47
2019-02-10T21:18:09.085Z,78.70
2019-02-10T21:21:41.082Z,71.20
2019-02-10T21:25:06.833Z,82.70
2019-02-10T21:28:28.338Z,88.27
2019-02-10T21:31:48.508Z,85.03
2019-02-10T21:35:13.030Z,85.40
2019-02-10T21:38:29.859Z,84.40
2019-02-10T21:41:47.052Z,103.13
2019-02-10T21:45:12.913Z,91.37
2019-02-10T21:48:23.841Z,82.10
2019-02-10T21:51:30.794Z,91.63
2019-02-10T21:54:37.670Z,120.07
2019-02-10T21:57:44.524Z,81.93
2019-02-10T22:00:51.456Z,72.27
2019-02-10T22:03:59.269Z,60.23
2019-02-10T22:07:06.059Z,60.17
2019-02-10T22:10:12.869Z,69.07
2019-02-10T22:13:19.795Z,66.63
2019-02-10T22:16:27.779Z,61.37
2019-02-10T22:19:35.781Z,60.83
2019-02-10T22:22:42.635Z,75.90
2019-02-10T22:25:49.348Z,69.30
2019-02-10T22:28:57.147Z,61.17
2019-02-10T22:32:03.964Z,60.43
2019-02-10T22:35:10.801Z,69.33
2019-02-10T22:38:17.708Z,38.17
2019-02-10T22:41:24.699Z,76.73
2019-02-10T22:44:31.889Z,81.67
2019-02-10T22:47:38.682Z,57.23
2019-02-10T22:50:45.760Z,75.40
2019-02-10T22:53:52.647Z,75.03
2019-02-10T22:56:59.485Z,35.23
2019-02-10T23:00:16.586Z,66.00
2019-02-10T23:03:24.287Z,62.73
2019-02-10T23:06:31.070Z,66.53
2019-02-10T23:09:37.940Z,70.37
2019-02-10T23:12:44.691Z,59.57
2019-02-10T23:15:51.521Z,62.27
2019-02-10T23:18:58.273Z,49.17
2019-02-10T23:22:05.102Z,74.90
2019-02-10T23:25:11.832Z,65.70
2019-02-10T23:28:18.671Z,80.10
2019-02-10T23:31:25.474Z,53.97
2019-02-10T23:34:32.232Z,81.00
2019-02-10T23:37:39.093Z,78.30
2019-02-10T23:40:45.972Z,77.53
2019-02-10T23:43:52.770Z,84.83
2019-02-10T23:46:59.509Z,102.23
2019-02-10T23:50:06.529Z,94.97
2019-02-10T23:53:13.240Z,71.67
2019-02-10T23:56:19.967Z,76.07
2019-02-10T23:59:26.751Z,63.67
